Time;durP1;ratioP1;P1;durP2;ratioP2;P2;SDS_P1;SDS_P2;PMS_P1;PMS_P2;Temp;Humidity;BMP_temperature;BMP_pressure;BME280_temperature;BME280_humidity;BME280_pressure;Samples;Min_cycle;Max_cycle;Signal;HPM_P1;HPM_P2
2022/09/28 00:01:27;;;;;;;;;2.00;2.00;;;;;9.57;78.35;99534.91;5016413;28;10690;-66
2022/09/28 00:03:57;;;;;;;;;2.00;1.25;;;;;9.58;78.19;99532.00;5040398;28;10153;-66
2022/09/28 00:06:25;;;;;;;;;1.50;1.50;;;;;9.59;78.27;99538.19;5046779;28;10071;-64
2022/09/28 00:08:51;;;;;;;;;2.00;2.00;;;;;9.57;77.81;99530.34;5015651;28;10121;-66
2022/09/28 00:11:20;;;;;;;;;1.25;1.25;;;;;9.57;78.04;99535.72;5012238;28;10224;-65
2022/09/28 00:13:52;;;;;;;;;0.50;0.00;;;;;9.57;78.29;99533.03;5030614;28;9938;-66
2022/09/28 00:16:24;;;;;;;;;1.00;1.00;;;;;9.57;78.44;99532.22;5030694;28;9990;-64
2022/09/28 00:18:51;;;;;;;;;1.75;1.75;;;;;9.55;77.85;99532.41;5031032;28;9989;-66
2022/09/28 00:21:23;;;;;;;;;0.50;0.50;;;;;9.54;78.24;99532.66;5048266;28;10080;-63
2022/09/28 00:26:39;;;;;;;;;0.25;0.25;;;;;9.50;77.67;99529.59;5034739;28;10085;-65
2022/09/28 00:29:14;;;;;;;;;1.00;1.00;;;;;9.48;78.30;99530.84;5032070;28;10052;-64
2022/09/28 00:31:41;;;;;;;;;1.00;1.00;;;;;9.46;77.79;99527.56;5031408;28;9971;-64
2022/09/28 00:34:07;;;;;;;;;4.50;4.00;;;;;9.44;77.94;99526.94;5054270;28;10051;-66
2022/09/28 00:36:34;;;;;;;;;0.00;0.00;;;;;9.44;78.07;99535.00;5046584;28;10016;-63
2022/09/28 00:39:06;;;;;;;;;1.00;0.00;;;;;9.42;78.16;99532.53;5039836;28;10061;-65
2022/09/28 00:41:34;;;;;;;;;2.50;0.75;;;;;9.42;78.26;99524.47;5031589;28;9988;-64
2022/09/28 00:44:23;;;;;;;;;2.00;1.00;;;;;9.43;77.96;99530.66;5013615;28;10070;-65
2022/09/28 00:46:53;;;;;;;;;1.00;1.00;;;;;9.42;78.08;99535.22;5013440;28;9940;-64
2022/09/28 00:49:46;;;;;;;;;0.50;0.00;;;;;9.41;78.29;99533.59;5031542;28;10056;-64
2022/09/28 00:52:20;;;;;;;;;1.25;1.00;;;;;9.40;77.94;99524.72;5030212;28;9950;-65
2022/09/28 00:54:50;;;;;;;;;2.00;0.00;;;;;9.41;78.29;99526.34;5025304;28;10288;-64
2022/09/28 00:57:17;;;;;;;;;0.50;0.50;;;;;9.41;77.94;99523.66;5037284;28;11026;-65
2022/09/28 00:59:44;;;;;;;;;0.00;0.00;;;;;9.42;77.67;99516.44;5058125;28;10055;-65
2022/09/28 01:02:10;;;;;;;;;2.00;1.00;;;;;9.43;78.05;99522.63;5027203;28;10144;-65
2022/09/28 01:04:38;;;;;;;;;2.50;1.00;;;;;9.44;78.10;99518.88;5024949;28;10226;-65
2022/09/28 01:07:07;;;;;;;;;3.50;1.00;;;;;9.46;78.24;99519.50;5045780;28;10355;-64
2022/09/28 01:09:38;;;;;;;;;4.00;2.00;;;;;9.47;78.11;99518.44;5029805;28;10160;-65
2022/09/28 01:12:04;;;;;;;;;1.00;1.00;;;;;9.49;78.08;99511.00;5029903;28;10173;-65
2022/09/28 01:14:31;;;;;;;;;1.00;1.00;;;;;9.50;77.98;99502.72;5026604;28;10774;-64
2022/09/28 01:17:14;;;;;;;;;0.75;0.75;;;;;9.52;77.86;99513.22;5026412;28;10077;-65
2022/09/28 01:20:14;;;;;;;;;0.00;0.00;;;;;9.52;78.42;99508.72;5045195;28;9968;-64
2022/09/28 01:23:11;;;;;;;;;1.00;1.00;;;;;9.46;77.67;99503.38;5032229;28;10023;-64
2022/09/28 01:25:58;;;;;;;;;1.00;1.00;;;;;9.43;78.22;99504.63;5029515;28;10156;-65
2022/09/28 01:28:27;;;;;;;;;2.00;1.00;;;;;9.40;78.29;99505.91;5039355;28;10166;-65
2022/09/28 01:30:56;;;;;;;;;0.75;0.75;;;;;9.42;78.08;99503.00;5033873;28;10159;-64
2022/09/28 01:33:27;;;;;;;;;2.00;1.00;;;;;9.42;78.44;99513.75;5033116;28;11499;-65
2022/09/28 01:36:01;;;;;;;;;1.75;1.00;;;;;9.45;78.98;99504.44;5045783;28;10092;-64
2022/09/28 01:38:32;;;;;;;;;2.00;1.00;;;;;9.43;78.69;99515.38;5030090;28;10048;-64
2022/09/28 01:41:00;;;;;;;;;1.00;1.00;;;;;9.43;78.47;99517.25;5034399;28;9891;-65
2022/09/28 01:43:28;;;;;;;;;0.75;0.75;;;;;9.40;78.59;99508.59;5047978;28;10049;-64
2022/09/28 01:46:00;;;;;;;;;1.50;1.00;;;;;9.41;78.98;99517.47;5029194;28;10139;-64
2022/09/28 01:48:36;;;;;;;;;1.00;1.00;;;;;9.41;78.57;99515.59;5029915;28;9968;-64
2022/09/28 01:51:09;;;;;;;;;0.00;0.00;;;;;9.41;78.62;99520.97;5037747;28;10779;-65
2022/09/28 01:53:43;;;;;;;;;0.00;0.00;;;;;9.38;78.67;99510.66;5026112;28;10181;-64
2022/09/28 01:56:22;;;;;;;;;0.00;0.00;;;;;9.37;78.55;99514.41;5051633;28;10060;-64
2022/09/28 01:58:56;;;;;;;;;0.00;0.00;;;;;9.37;78.70;99514.41;5017642;28;9979;-64
2022/09/28 02:01:34;;;;;;;;;0.00;0.00;;;;;9.34;78.59;99509.47;5055317;28;10505;-64
2022/09/28 02:04:07;;;;;;;;;0.00;0.00;;;;;9.32;78.85;99503.50;5025555;28;10809;-64
2022/09/28 02:07:06;;;;;;;;;0.00;0.00;;;;;9.30;79.07;99508.25;5008393;28;10054;-64
2022/09/28 02:09:43;;;;;;;;;0.00;0.00;;;;;9.30;78.68;99508.25;5033745;28;10237;-64
2022/09/28 02:12:18;;;;;;;;;0.00;0.00;;;;;9.35;78.61;99508.41;5054135;28;10226;-65
2022/09/28 02:14:48;;;;;;;;;0.00;0.00;;;;;9.36;78.97;99506.56;5045400;28;10067;-65
2022/09/28 02:17:15;;;;;;;;;0.00;0.00;;;;;9.34;78.43;99508.63;5027956;28;10066;-65
2022/09/28 02:19:46;;;;;;;;;0.00;0.00;;;;;9.33;78.61;99502.44;5027461;28;10053;-65
2022/09/28 02:22:36;;;;;;;;;0.00;0.00;;;;;9.28;78.10;99496.91;5044940;28;10073;-64
2022/09/28 02:25:35;;;;;;;;;0.00;0.00;;;;;9.27;77.94;99503.31;5044462;28;10076;-65
2022/09/28 02:28:05;;;;;;;;;0.00;0.00;;;;;9.26;78.34;99504.34;5023532;28;9999;-66
2022/09/28 02:30:35;;;;;;;;;2.00;0.00;;;;;9.24;78.55;99502.94;5044820;28;10857;-66
2022/09/28 02:33:15;;;;;;;;;0.00;0.00;;;;;9.23;78.48;99504.78;5028505;28;10103;-65
2022/09/28 02:35:42;;;;;;;;;0.00;0.00;;;;;9.20;78.36;99504.44;5052644;28;10148;-65
2022/09/28 02:38:13;;;;;;;;;0.00;0.00;;;;;9.18;77.91;99501.94;5030357;28;10138;-65
2022/09/28 02:40:56;;;;;;;;;0.75;0.00;;;;;9.19;78.12;99510.81;5044777;28;10067;-65
2022/09/28 02:43:30;;;;;;;;;0.00;0.00;;;;;9.15;77.97;99507.75;5016560;28;10065;-66
2022/09/28 02:46:15;;;;;;;;;0.00;0.00;;;;;9.16;78.14;99520.97;5014965;28;10278;-66
2022/09/28 02:49:12;;;;;;;;;0.00;0.00;;;;;9.14;78.18;99523.03;5049440;28;10210;-66
2022/09/28 02:52:02;;;;;;;;;0.00;0.00;;;;;9.14;78.36;99524.91;5027579;28;10148;-66
2022/09/28 02:54:34;;;;;;;;;0.00;0.00;;;;;9.11;78.45;99522.63;5010007;28;10168;-65
2022/09/28 02:57:32;;;;;;;;;0.75;0.75;;;;;9.12;78.26;99538.53;5012282;28;10149;-66
2022/09/28 03:00:08;;;;;;;;;0.00;0.00;;;;;9.13;78.42;99534.81;5045011;28;10325;-65
2022/09/28 03:02:54;;;;;;;;;0.00;0.00;;;;;9.15;78.22;99543.50;5048333;28;10066;-65
2022/09/28 03:05:51;;;;;;;;;0.00;0.00;;;;;9.13;78.44;99539.38;5052724;28;10432;-66
2022/09/28 03:08:32;;;;;;;;;0.00;0.00;;;;;9.13;78.83;99542.88;5049288;28;10176;-65
2022/09/28 03:11:09;;;;;;;;;0.00;0.00;;;;;9.12;78.28;99543.91;5044481;28;10156;-65
2022/09/28 03:13:36;;;;;;;;;0.00;0.00;;;;;9.11;78.59;99542.25;5027875;28;10144;-66
2022/09/28 03:16:10;;;;;;;;;0.75;0.00;;;;;9.13;78.91;99544.72;5025752;28;10280;-66
2022/09/28 03:18:37;;;;;;;;;0.00;0.00;;;;;9.13;79.30;99542.06;5057945;28;10200;-66
2022/09/28 03:21:04;;;;;;;;;0.00;0.00;;;;;9.11;79.13;99526.13;5051678;28;10205;-66
2022/09/28 03:23:31;;;;;;;;;0.00;0.00;;;;;9.15;79.16;99542.63;5033721;28;10193;-65
2022/09/28 03:26:00;;;;;;;;;0.00;0.00;;;;;9.16;78.70;99533.56;5029886;28;10146;-65
2022/09/28 03:28:27;;;;;;;;;0.00;0.00;;;;;9.16;79.13;99529.03;5058362;22;10276;-65
2022/09/28 03:30:53;;;;;;;;;0.00;0.00;;;;;9.16;78.71;99528.19;5067382;28;10894;-65
2022/09/28 03:33:20;;;;;;;;;0.00;0.00;;;;;9.17;79.19;99537.91;5043930;28;10536;-64
2022/09/28 03:35:49;;;;;;;;;1.00;0.00;;;;;9.16;78.94;99537.06;5051598;28;10186;-65
2022/09/28 03:38:17;;;;;;;;;0.00;0.00;;;;;9.16;78.93;99529.03;5042763;28;10078;-64
2022/09/28 03:41:04;;;;;;;;;0.00;0.00;;;;;9.18;78.48;99527.97;5048685;28;10185;-65
2022/09/28 03:43:34;;;;;;;;;0.00;0.00;;;;;9.18;78.93;99531.47;5048215;28;10207;-65
2022/09/28 03:46:02;;;;;;;;;0.00;0.00;;;;;9.20;78.52;99531.28;5049289;28;10138;-64
2022/09/28 03:48:34;;;;;;;;;0.00;0.00;;;;;9.18;78.52;99526.09;5047549;28;9968;-64
2022/09/28 03:51:05;;;;;;;;;0.25;0.00;;;;;9.18;78.61;99530.66;5051412;28;10079;-66
2022/09/28 03:53:32;;;;;;;;;0.00;0.00;;;;;9.16;78.35;99525.50;5050783;28;10222;-64
2022/09/28 03:56:10;;;;;;;;;0.00;0.00;;;;;9.16;79.04;99528.19;5034707;28;10136;-64
2022/09/28 03:58:37;;;;;;;;;0.00;0.00;;;;;9.13;78.28;99524.06;5049644;28;10217;-64
2022/09/28 04:01:11;;;;;;;;;0.00;0.00;;;;;9.11;78.10;99526.13;5050846;28;10119;-64
2022/09/28 04:03:44;;;;;;;;;0.00;0.00;;;;;9.08;78.24;99531.97;5050011;28;10878;-65
2022/09/28 04:06:12;;;;;;;;;0.75;0.75;;;;;9.07;78.16;99532.16;5062739;28;10115;-64
2022/09/28 04:08:38;;;;;;;;;0.00;0.00;;;;;9.03;78.00;99529.09;5049837;28;10234;-65
2022/09/28 04:11:05;;;;;;;;;0.00;0.00;;;;;9.03;78.19;99539.00;5050509;28;10200;-65
2022/09/28 04:13:32;;;;;;;;;0.25;0.00;;;;;9.00;78.29;99540.28;5050821;28;10253;-65
2022/09/28 04:16:00;;;;;;;;;0.00;0.00;;;;;8.99;78.14;99540.47;5050207;28;10214;-65
2022/09/28 04:18:31;;;;;;;;;0.00;0.00;;;;;8.96;78.52;99541.75;5047748;28;10075;-64
2022/09/28 04:21:06;;;;;;;;;0.00;0.00;;;;;8.95;78.73;99540.06;5052296;28;10289;-64
2022/09/28 04:23:39;;;;;;;;;0.00;0.00;;;;;8.95;78.21;99541.94;5033332;28;10937;-64
2022/09/28 04:26:12;;;;;;;;;1.00;0.00;;;;;8.94;78.73;99546.50;5030739;28;10165;-64
2022/09/28 04:31:35;;;;;;;;;4.25;4.25;;;;;8.91;78.46;99538.88;5050015;28;10159;-63
2022/09/28 04:34:03;;;;;;;;;5.50;5.50;;;;;8.89;78.50;99528.34;5055413;28;10566;-65
2022/09/28 04:36:30;;;;;;;;;4.00;2.00;;;;;8.90;78.21;99537.22;5049445;28;10615;-65
2022/09/28 04:38:56;;;;;;;;;0.00;0.00;;;;;8.90;78.60;99542.59;5049311;28;11036;-65
2022/09/28 04:41:25;;;;;;;;;3.50;3.50;;;;;8.87;78.70;99534.97;5050440;28;10352;-65
2022/09/28 04:43:52;;;;;;;;;1.00;1.00;;;;;8.88;78.75;99542.81;5049522;28;10281;-64
2022/09/28 04:46:19;;;;;;;;;1.00;1.00;;;;;8.89;78.59;99528.34;5049753;28;10291;-64
2022/09/28 04:49:00;;;;;;;;;1.00;1.00;;;;;8.91;78.42;99533.50;5059361;28;10348;-64
2022/09/28 04:51:45;;;;;;;;;0.00;0.00;;;;;8.91;78.48;99531.66;5051282;28;10272;-65
2022/09/28 04:54:11;;;;;;;;;0.00;0.00;;;;;8.93;78.30;99536.81;5050773;28;10239;-65
2022/09/28 04:56:38;;;;;;;;;0.00;0.00;;;;;8.94;78.25;99532.25;5046561;28;10445;-65
2022/09/28 04:59:04;;;;;;;;;0.00;0.00;;;;;8.91;78.15;99531.66;5050838;28;10265;-65
2022/09/28 05:01:31;;;;;;;;;0.25;0.25;;;;;8.91;78.16;99530.81;5049836;28;10391;-64
2022/09/28 05:03:57;;;;;;;;;1.00;1.00;;;;;8.88;78.42;99540.13;5050310;28;11020;-64
2022/09/28 05:06:36;;;;;;;;;1.00;1.00;;;;;8.85;78.12;99539.75;5049386;28;10218;-64
2022/09/28 05:09:05;;;;;;;;;0.00;0.00;;;;;8.82;78.02;99546.34;5048586;28;10302;-64
2022/09/28 05:11:32;;;;;;;;;0.00;0.00;;;;;8.80;77.76;99547.63;5029796;28;10354;-63
2022/09/28 05:13:58;;;;;;;;;0.00;0.00;;;;;8.78;78.05;99552.34;5049745;28;10287;-64
2022/09/28 05:16:25;;;;;;;;;0.00;0.00;;;;;8.76;78.18;99554.44;5049015;28;10390;-67
2022/09/28 05:19:11;;;;;;;;;0.00;0.00;;;;;8.98;79.39;99560.31;5030382;28;11057;-65
2022/09/28 05:21:43;;;;;;;;;0.00;0.00;;;;;8.97;78.33;99562.16;5031010;28;10304;-64
2022/09/28 05:24:10;;;;;;;;;0.00;0.00;;;;;8.94;77.96;99559.09;5049458;28;10881;-65
2022/09/28 05:26:38;;;;;;;;;0.00;0.00;;;;;8.89;78.15;99563.25;5048731;28;10226;-65
2022/09/28 05:29:06;;;;;;;;;0.00;0.00;;;;;8.86;77.89;99562.84;5048990;28;10473;-65
2022/09/28 05:31:49;;;;;;;;;0.00;0.00;;;;;8.84;78.07;99567.63;5048969;28;10210;-65
2022/09/28 05:34:31;;;;;;;;;0.00;0.00;;;;;8.86;78.17;99565.53;5044270;28;10390;-65
2022/09/28 05:36:58;;;;;;;;;0.00;0.00;;;;;8.87;78.38;99565.34;5034959;28;11113;-64
2022/09/28 05:39:24;;;;;;;;;0.00;0.00;;;;;8.88;78.19;99566.97;5051064;28;10273;-66
2022/09/28 05:41:51;;;;;;;;;0.00;0.00;;;;;8.90;78.12;99567.56;5050635;28;11028;-66
2022/09/28 05:44:17;;;;;;;;;0.00;0.00;;;;;8.94;78.35;99564.47;5050785;28;11086;-66
2022/09/28 05:46:45;;;;;;;;;0.50;0.50;;;;;8.93;77.88;99558.28;5048338;28;10341;-65
2022/09/28 05:49:12;;;;;;;;;0.00;0.00;;;;;8.90;78.02;99556.84;5048713;28;10330;-66
2022/09/28 05:51:39;;;;;;;;;0.00;0.00;;;;;8.89;77.83;99552.50;5048977;28;10326;-65
2022/09/28 05:54:05;;;;;;;;;0.00;0.00;;;;;8.89;78.38;99552.50;5048929;28;10282;-66
2022/09/28 05:56:39;;;;;;;;;0.00;0.00;;;;;8.88;77.94;99553.56;5032897;28;10206;-65
2022/09/28 05:59:06;;;;;;;;;0.00;0.00;;;;;8.90;78.02;99553.31;5048714;28;10343;-65
2022/09/28 06:01:34;;;;;;;;;0.00;0.00;;;;;8.93;77.83;99552.91;5048808;28;10213;-65
2022/09/28 06:04:02;;;;;;;;;0.00;0.00;;;;;8.95;77.89;99553.50;5048918;28;10266;-66
2022/09/28 06:06:30;;;;;;;;;1.00;0.00;;;;;8.96;78.11;99548.97;5047761;28;10126;-66
2022/09/28 06:08:56;;;;;;;;;0.00;0.00;;;;;8.99;78.23;99554.72;5050058;28;10288;-66
2022/09/28 06:11:47;;;;;;;;;0.00;0.00;;;;;9.01;78.25;99546.47;5039914;28;10218;-65
2022/09/28 06:14:28;;;;;;;;;0.00;0.00;;;;;9.04;78.20;99548.72;5048771;28;10102;-66
2022/09/28 06:16:55;;;;;;;;;1.00;0.00;;;;;9.07;78.44;99553.63;5046435;28;10065;-65
2022/09/28 06:19:21;;;;;;;;;0.00;0.00;;;;;9.09;78.23;99556.94;5049894;28;10076;-66
2022/09/28 06:22:14;;;;;;;;;0.00;0.00;;;;;9.11;78.33;99552.16;5035132;28;10166;-66
2022/09/28 06:24:46;;;;;;;;;1.00;1.00;;;;;9.14;78.10;99560.63;5048535;28;10075;-66
2022/09/28 06:27:13;;;;;;;;;0.00;0.00;;;;;9.21;78.57;99562.44;5049065;28;10195;-65
2022/09/28 06:29:39;;;;;;;;;0.00;0.00;;;;;9.26;78.35;99558.06;5048894;28;10792;-65
2022/09/28 06:32:06;;;;;;;;;0.00;0.00;;;;;9.35;78.23;99558.63;5048750;28;10058;-65
2022/09/28 06:34:34;;;;;;;;;0.00;0.00;;;;;9.41;78.27;99560.44;5048996;28;10879;-66
2022/09/28 06:37:03;;;;;;;;;0.00;0.00;;;;;9.46;77.84;99565.16;5047273;28;10193;-65
2022/09/28 06:39:30;;;;;;;;;0.50;0.50;;;;;9.50;77.72;99569.06;5047049;28;10076;-66
2022/09/28 06:41:57;;;;;;;;;1.00;1.00;;;;;9.54;77.68;99578.31;5065069;28;9979;-66
2022/09/28 06:44:36;;;;;;;;;0.00;0.00;;;;;9.58;77.62;99577.66;5048311;28;9914;-66
2022/09/28 06:47:23;;;;;;;;;0.00;0.00;;;;;9.63;77.66;99580.50;5047466;28;9912;-66
2022/09/28 06:50:02;;;;;;;;;1.25;1.00;;;;;9.65;77.83;99588.38;5044927;28;10763;-66
2022/09/28 06:52:52;;;;;;;;;2.00;0.00;;;;;9.64;77.69;99584.88;5031024;28;10074;-66
2022/09/28 06:55:40;;;;;;;;;1.00;0.00;;;;;9.64;77.61;99592.94;5038637;28;9994;-66
2022/09/28 06:58:09;;;;;;;;;1.00;1.00;;;;;9.65;78.00;99586.50;5051780;28;10001;-65
2022/09/28 07:00:38;;;;;;;;;1.00;0.00;;;;;9.69;78.48;99594.94;5053238;28;9891;-66
2022/09/28 07:03:15;;;;;;;;;1.00;1.00;;;;;9.70;78.44;99598.47;5051690;28;9993;-65
2022/09/28 07:05:59;;;;;;;;;0.00;0.00;;;;;9.69;78.05;99602.19;5037073;28;9917;-65
2022/09/28 07:08:40;;;;;;;;;0.00;0.00;;;;;9.71;78.22;99606.28;5051381;28;9982;-66
2022/09/28 07:11:25;;;;;;;;;0.00;0.00;;;;;9.74;78.73;99600.47;5053105;28;10058;-66
2022/09/28 07:14:08;;;;;;;;;0.00;0.00;;;;;9.79;79.27;99606.00;5051986;28;9854;-66
2022/09/28 07:16:52;;;;;;;;;0.00;0.00;;;;;9.82;78.82;99596.69;5050880;28;10721;-66
2022/09/28 07:19:38;;;;;;;;;0.00;0.00;;;;;9.89;79.04;99606.34;5051561;28;9908;-65
2022/09/28 07:22:05;;;;;;;;;0.00;0.00;;;;;9.94;78.86;99610.25;5051676;28;9744;-66
2022/09/28 07:24:31;;;;;;;;;1.00;0.25;;;;;9.97;78.77;99612.50;5051642;28;9886;-66
2022/09/28 07:27:35;;;;;;;;;3.75;2.00;;;;;9.97;78.75;99615.19;5032298;28;9900;-66
2022/09/28 07:30:32;;;;;;;;;0.50;0.50;;;;;9.99;79.38;99608.53;5031745;28;9924;-65
2022/09/28 07:33:07;;;;;;;;;1.00;1.00;;;;;10.03;79.30;99609.75;5047246;28;10463;-66
2022/09/28 07:35:53;;;;;;;;;1.00;1.00;;;;;10.07;79.47;99610.94;5051283;28;10070;-66
2022/09/28 07:38:22;;;;;;;;;0.50;0.00;;;;;10.12;79.10;99616.47;5051059;28;9969;-66
2022/09/28 07:43:34;;;;;;;;;2.00;2.00;;;;;10.21;79.18;99627.78;5050507;28;9891;-66
2022/09/28 07:46:02;;;;;;;;;0.00;0.00;;;;;10.24;78.66;99632.69;5051136;28;10674;-66
2022/09/28 07:48:36;;;;;;;;;0.25;0.25;;;;;10.27;78.70;99631.47;5050693;28;9798;-66
2022/09/28 07:51:12;;;;;;;;;1.00;1.00;;;;;10.25;78.86;99633.56;5051193;28;9823;-66
2022/09/28 07:53:55;;;;;;;;;1.50;1.50;;;;;10.26;79.10;99636.03;5050823;28;9909;-66
2022/09/28 07:56:39;;;;;;;;;1.00;1.00;;;;;10.29;78.94;99640.13;5050651;28;9864;-66
2022/09/28 07:59:17;;;;;;;;;0.00;0.00;;;;;10.33;78.90;99644.88;5050867;28;9816;-66
2022/09/28 08:02:02;;;;;;;;;0.00;0.00;;;;;10.37;78.85;99643.38;5051515;28;9834;-66
2022/09/28 08:04:29;;;;;;;;;0.00;0.00;;;;;10.42;78.64;99639.22;5049946;28;10462;-66
2022/09/28 08:06:55;;;;;;;;;0.00;0.00;;;;;10.45;78.62;99641.44;5049924;28;9745;-66
2022/09/28 08:09:22;;;;;;;;;1.75;1.75;;;;;10.47;78.92;99645.56;5050464;28;9739;-66
2022/09/28 08:12:23;;;;;;;;;0.00;0.00;;;;;10.53;78.98;99641.97;5051314;28;9728;-66
2022/09/28 08:15:10;;;;;;;;;0.25;0.25;;;;;10.58;78.83;99644.00;5051820;28;9675;-66
2022/09/28 08:17:53;;;;;;;;;0.00;0.00;;;;;10.62;78.54;99645.19;5050782;28;9900;-66
2022/09/28 08:23:19;;;;;;;;;1.75;1.00;;;;;10.70;78.93;99647.59;5031646;28;9953;-66
2022/09/28 08:25:52;;;;;;;;;0.00;0.00;;;;;10.73;78.22;99652.50;5050517;28;9812;-66
2022/09/28 08:28:22;;;;;;;;;1.00;1.00;;;;;10.73;78.43;99651.69;5049070;28;9751;-66
2022/09/28 08:30:52;;;;;;;;;0.25;0.25;;;;;10.73;78.67;99660.56;5049651;28;9664;-66
2022/09/28 08:33:31;;;;;;;;;0.25;0.25;;;;;10.78;78.79;99655.38;5051528;28;9775;-66
2022/09/28 08:36:16;;;;;;;;;1.00;0.00;;;;;10.85;78.66;99660.66;5051583;28;9676;-65
2022/09/28 08:39:09;;;;;;;;;1.00;0.00;;;;;10.93;78.74;99662.22;5034607;28;10467;-66
2022/09/28 08:42:09;;;;;;;;;0.00;0.00;;;;;11.01;78.65;99664.63;5050187;28;9636;-65
2022/09/28 08:45:08;;;;;;;;;0.50;0.25;;;;;11.03;78.22;99670.59;5049963;28;9686;-66
2022/09/28 08:51:27;;;;;;;;;1.00;1.00;;;;;11.12;78.13;99669.25;5049908;28;9830;-66
2022/09/28 08:54:09;;;;;;;;;1.00;1.00;;;;;11.16;78.39;99678.53;5049782;28;9678;-66
2022/09/28 08:57:00;;;;;;;;;1.00;1.00;;;;;11.23;77.84;99684.66;5048858;28;9718;-66
2022/09/28 08:59:52;;;;;;;;;0.00;0.00;;;;;11.27;77.39;99687.72;5049849;28;9600;-66
2022/09/28 09:02:38;;;;;;;;;2.00;2.00;;;;;11.28;77.11;99689.34;5049462;28;10340;-66
2022/09/28 09:05:26;;;;;;;;;0.75;0.75;;;;;11.29;76.99;99694.50;5049533;28;9735;-66
2022/09/28 09:08:11;;;;;;;;;0.00;0.00;;;;;11.34;76.56;99696.50;5049040;28;9530;-66
2022/09/28 09:10:44;;;;;;;;;0.00;0.00;;;;;11.34;76.35;99697.38;5050849;28;9674;-66
2022/09/28 09:13:32;;;;;;;;;0.00;0.00;;;;;11.34;75.59;99691.97;5049306;28;9462;-65
2022/09/28 09:16:21;;;;;;;;;0.00;0.00;;;;;11.41;75.42;99694.56;5048418;28;9458;-65
2022/09/28 09:19:16;;;;;;;;;0.25;0.00;;;;;11.46;75.38;99701.94;5029470;28;9605;-65
2022/09/28 09:22:08;;;;;;;;;1.00;1.00;;;;;11.46;74.96;99697.38;5033684;28;9527;-66
2022/09/28 09:24:51;;;;;;;;;0.00;0.00;;;;;11.49;74.72;99699.63;5050906;28;9493;-66
2022/09/28 09:27:41;;;;;;;;;0.00;0.00;;;;;11.49;74.38;99688.03;5014011;28;9531;-73
2022/09/28 09:30:11;;;;;;;;;0.00;0.00;;;;;11.57;73.94;99695.78;5024232;28;10146;-67
2022/09/28 09:32:42;;;;;;;;;0.00;0.00;;;;;11.60;73.97;99695.34;5042765;28;9451;-67
2022/09/28 09:35:30;;;;;;;;;0.00;0.00;;;;;11.62;73.60;99691.34;5041373;28;10216;-67
2022/09/28 09:38:30;;;;;;;;;0.00;0.00;;;;;11.48;72.51;99689.91;5010245;28;9391;-63
2022/09/28 09:41:31;;;;;;;;;0.00;0.00;;;;;11.46;72.37;99688.47;5010389;28;9470;-67
2022/09/28 09:44:37;;;;;;;;;0.00;0.00;;;;;11.50;71.79;99697.75;5009047;28;9552;-67
2022/09/28 09:47:46;;;;;;;;;0.00;0.00;;;;;11.56;71.87;99694.16;5010651;28;9621;-67
2022/09/28 09:50:38;;;;;;;;;0.00;0.00;;;;;11.60;71.42;99698.88;5009217;28;10295;-64
2022/09/28 09:53:27;;;;;;;;;0.00;0.00;;;;;11.61;71.19;99696.97;5009224;28;9538;-65
2022/09/28 09:56:00;;;;;;;;;0.00;0.00;;;;;11.67;70.63;99695.22;5009158;28;9574;-64
2022/09/28 09:58:38;;;;;;;;;0.00;0.00;;;;;11.80;70.83;99693.19;5025417;28;9472;-65
2022/09/28 10:01:34;;;;;;;;;0.00;0.00;;;;;11.95;70.82;99703.56;5009215;28;9532;-64
2022/09/28 10:04:23;;;;;;;;;0.00;0.00;;;;;11.95;70.24;99702.72;5008453;28;9683;-67
2022/09/28 10:06:57;;;;;;;;;0.00;0.00;;;;;12.03;70.06;99697.00;4995930;28;9383;-67
2022/09/28 10:09:33;;;;;;;;;0.00;0.00;;;;;12.04;70.35;99698.66;4989272;28;10059;-64
2022/09/28 10:12:22;;;;;;;;;0.00;0.00;;;;;12.04;70.54;99695.97;4989352;28;9510;-67
2022/09/28 10:14:49;;;;;;;;;0.00;0.00;;;;;12.05;70.28;99695.72;5005903;28;9459;-64
2022/09/28 10:17:18;;;;;;;;;0.00;0.00;;;;;12.02;70.46;99693.50;4989050;28;9480;-67
2022/09/28 10:20:03;;;;;;;;;0.00;0.00;;;;;12.02;70.73;99695.38;4990618;28;9259;-65
2022/09/28 10:22:55;;;;;;;;;1.00;0.00;;;;;12.02;70.58;99692.66;4989346;28;9378;-64
2022/09/28 10:25:23;;;;;;;;;0.00;0.00;;;;;12.06;70.40;99700.06;5006063;28;9360;-66
2022/09/28 10:27:51;;;;;;;;;0.00;0.00;;;;;12.19;70.25;99698.19;5010151;28;9389;-66
2022/09/28 10:30:24;;;;;;;;;0.00;0.00;;;;;12.32;70.58;99692.59;5012795;28;9305;-65
2022/09/28 10:32:57;;;;;;;;;0.67;0.00;;;;;12.42;70.71;99695.53;5012723;28;9223;-67
2022/09/28 10:35:39;;;;;;;;;0.00;0.00;;;;;12.47;70.63;99695.63;5012539;28;9402;-62
2022/09/28 10:38:17;;;;;;;;;1.00;1.00;;;;;12.52;71.01;99697.66;5012328;28;9308;-67
2022/09/28 10:40:54;;;;;;;;;0.00;0.00;;;;;12.53;70.71;99700.13;5013963;28;9320;-67
2022/09/28 10:43:37;;;;;;;;;0.00;0.00;;;;;12.51;70.51;99696.81;4992855;28;9427;-67
2022/09/28 10:46:20;;;;;;;;;0.00;0.00;;;;;12.44;69.87;99706.94;5009283;28;10021;-67
2022/09/28 10:48:59;;;;;;;;;0.00;0.00;;;;;12.40;70.59;99699.50;5009175;28;9425;-67
2022/09/28 10:51:43;;;;;;;;;0.00;0.00;;;;;12.31;70.75;99710.66;5011754;28;9383;-64
2022/09/28 10:54:17;;;;;;;;;0.00;0.00;;;;;12.25;70.94;99718.88;5012202;28;9316;-65
2022/09/28 10:56:47;;;;;;;;;0.00;0.00;;;;;12.24;71.46;99715.34;5024988;28;9397;-65
2022/09/28 10:59:28;;;;;;;;;0.00;0.00;;;;;12.21;71.63;99732.00;5012445;28;9386;-67
2022/09/28 11:02:26;;;;;;;;;0.00;0.00;;;;;12.10;71.88;99727.41;5011359;28;9227;-65
2022/09/28 11:05:05;;;;;;;;;0.00;0.00;;;;;12.01;72.74;99729.59;5012222;28;9438;-65
2022/09/28 11:07:46;;;;;;;;;0.00;0.00;;;;;11.96;72.74;99725.97;5008846;28;9452;-66
2022/09/28 11:10:25;;;;;;;;;0.00;0.00;;;;;11.91;72.83;99731.22;5008898;28;9549;-66
2022/09/28 11:12:56;;;;;;;;;0.00;0.00;;;;;11.80;72.44;99728.22;5009237;28;9399;-65
2022/09/28 11:15:28;;;;;;;;;0.00;0.00;;;;;11.79;72.40;99720.38;5009154;28;9419;-66
2022/09/28 11:18:17;;;;;;;;;0.00;0.00;;;;;11.78;72.54;99718.72;5011773;28;9313;-64
2022/09/28 11:20:43;;;;;;;;;0.00;0.00;;;;;11.79;72.64;99717.69;5012066;28;9456;-65
2022/09/28 11:23:19;;;;;;;;;0.00;0.00;;;;;11.82;72.57;99726.13;5013182;28;9466;-67
2022/09/28 11:25:57;;;;;;;;;0.00;0.00;;;;;11.86;72.92;99729.22;5011134;28;9538;-65
2022/09/28 11:28:31;;;;;;;;;0.00;0.00;;;;;11.88;72.76;99727.94;5011468;28;9418;-64
2022/09/28 11:31:01;;;;;;;;;0.00;0.00;;;;;11.86;73.15;99721.94;5011805;28;9299;-67
2022/09/28 11:34:04;;;;;;;;;0.67;0.00;;;;;11.85;73.17;99731.09;5012984;28;9476;-65
2022/09/28 11:36:58;;;;;;;;;0.00;0.00;;;;;11.85;73.56;99736.47;5001038;28;9315;-67
2022/09/28 11:39:49;;;;;;;;;0.33;0.33;;;;;11.87;73.86;99730.88;4990871;28;9484;-65
2022/09/28 11:42:32;;;;;;;;;0.00;0.00;;;;;11.88;73.96;99732.50;5003246;28;10486;-67
2022/09/28 11:45:14;;;;;;;;;0.00;0.00;;;;;11.87;74.33;99739.78;5008308;28;9394;-65
2022/09/28 11:47:46;;;;;;;;;0.00;0.00;;;;;11.86;74.53;99743.50;5009226;28;9603;-67
2022/09/28 11:50:21;;;;;;;;;0.00;0.00;;;;;11.82;74.65;99739.59;5028055;28;9513;-66
2022/09/28 11:53:08;;;;;;;;;0.00;0.00;;;;;11.80;74.80;99739.03;5008208;28;9550;-66
2022/09/28 11:55:46;;;;;;;;;0.00;0.00;;;;;11.78;74.66;99734.91;4992729;28;9562;-65
2022/09/28 11:58:26;;;;;;;;;1.00;0.00;;;;;11.77;74.49;99744.88;5009632;28;9452;-67
2022/09/28 12:01:25;;;;;;;;;0.00;0.00;;;;;11.80;74.88;99730.94;5011317;28;9510;-67
2022/09/28 12:04:15;;;;;;;;;0.00;0.00;;;;;11.89;74.87;99726.06;5011176;28;9440;-67
2022/09/28 12:06:52;;;;;;;;;0.00;0.00;;;;;11.95;74.58;99729.69;5003811;28;9475;-67
2022/09/28 12:09:35;;;;;;;;;0.00;0.00;;;;;12.00;74.29;99727.16;5011031;28;9628;-67
2022/09/28 12:12:23;;;;;;;;;0.00;0.00;;;;;12.06;73.95;99724.34;4991811;28;9538;-67
2022/09/28 12:14:58;;;;;;;;;0.00;0.00;;;;;12.12;73.69;99730.69;4999449;28;9633;-66
2022/09/28 12:17:33;;;;;;;;;0.00;0.00;;;;;12.19;72.93;99730.56;5004700;28;9417;-65
2022/09/28 12:20:11;;;;;;;;;0.00;0.00;;;;;12.24;72.39;99728.84;5001307;28;9394;-67
2022/09/28 12:22:43;;;;;;;;;0.00;0.00;;;;;12.37;71.82;99725.09;5012166;28;9452;-67
2022/09/28 12:25:16;;;;;;;;;0.00;0.00;;;;;12.70;73.34;99721.81;5012055;28;10202;-61
2022/09/28 12:27:50;;;;;;;;;0.00;0.00;;;;;13.08;72.89;99729.44;5004821;28;9462;-69
2022/09/28 12:30:25;;;;;;;;;0.00;0.00;;;;;13.14;69.96;99724.13;5004953;28;9303;-66
2022/09/28 12:33:03;;;;;;;;;0.00;0.00;;;;;13.07;69.17;99727.75;5010413;28;9239;-66
2022/09/28 12:35:51;;;;;;;;;0.00;0.00;;;;;12.99;69.38;99735.41;5011849;28;9969;-66
2022/09/28 12:38:58;;;;;;;;;0.00;0.00;;;;;12.85;69.28;99734.84;5010933;28;9089;-65
2022/09/28 12:42:06;;;;;;;;;0.00;0.00;;;;;12.81;69.30;99728.28;5009719;28;9944;-65